createdAt,value
2018-04-23T00:02:13.547Z,7.90
2018-04-23T00:04:42.817Z,7.07
2018-04-23T00:07:11.987Z,6.80
2018-04-23T00:09:42.243Z,7.40
2018-04-23T00:12:11.404Z,6.90
2018-04-23T00:14:40.600Z,7.50
2018-04-23T00:17:10.545Z,7.83
2018-04-23T00:19:39.720Z,7.63
2018-04-23T00:22:08.971Z,7.40
2018-04-23T00:24:38.248Z,7.50
2018-04-23T00:27:07.552Z,7.97
2018-04-23T00:29:36.975Z,7.90
2018-04-23T00:32:06.352Z,7.97
2018-04-23T00:34:35.657Z,8.07
2018-04-23T00:37:04.857Z,8.13
2018-04-23T00:39:34.358Z,7.43
2018-04-23T00:42:03.533Z,8.47
2018-04-23T00:44:33.519Z,8.00
2018-04-23T00:47:02.761Z,8.03
2018-04-23T00:49:32.075Z,8.23
2018-04-23T00:52:01.260Z,6.83
2018-04-23T00:54:30.460Z,7.73
2018-04-23T00:56:59.771Z,8.53
2018-04-23T00:59:28.962Z,8.20
2018-04-23T01:01:58.155Z,8.40
2018-04-23T01:04:27.374Z,7.80
2018-04-23T01:06:56.865Z,7.97
2018-04-23T01:09:26.170Z,7.87
2018-04-23T01:11:55.453Z,8.10
2018-04-23T01:14:24.577Z,8.70
2018-04-23T01:16:53.863Z,8.33
2018-04-23T01:19:23.252Z,8.40
2018-04-23T01:21:52.554Z,7.50
2018-04-23T01:24:21.768Z,7.97
2018-04-23T01:26:50.919Z,8.07
2018-04-23T01:29:20.912Z,8.30
2018-04-23T01:31:50.281Z,8.23
2018-04-23T01:34:19.578Z,8.60
2018-04-23T01:36:48.760Z,7.97
2018-04-23T01:39:18.078Z,8.10
2018-04-23T01:41:47.246Z,8.00
2018-04-23T01:44:16.613Z,8.00
2018-04-23T01:46:45.799Z,8.23
2018-04-23T01:49:15.094Z,8.10
2018-04-23T01:51:44.510Z,8.07
2018-04-23T01:54:14.494Z,7.87
2018-04-23T01:56:43.818Z,8.03
2018-04-23T01:59:13.042Z,8.00
2018-04-23T02:01:42.286Z,8.60
2018-04-23T02:04:11.629Z,8.10
2018-04-23T02:06:41.016Z,8.93
2018-04-23T02:09:11.041Z,9.03
2018-04-23T02:11:40.264Z,8.43
2018-04-23T02:14:10.249Z,8.37
2018-04-23T02:16:40.253Z,7.93
2018-04-23T02:19:09.460Z,8.70
2018-04-23T02:21:38.897Z,8.97
2018-04-23T02:24:08.285Z,9.03
2018-04-23T02:26:37.516Z,8.63
2018-04-23T02:29:06.745Z,8.73
2018-04-23T02:31:36.152Z,8.60
2018-04-23T02:34:05.337Z,8.67
2018-04-23T02:36:34.633Z,8.90
2018-04-23T02:39:03.961Z,8.93
2018-04-23T02:41:33.384Z,8.13
2018-04-23T02:44:03.386Z,8.40
2018-04-23T02:46:33.349Z,9.00
2018-04-23T02:49:02.683Z,8.90
2018-04-23T02:51:31.968Z,9.10
2018-04-23T02:54:01.233Z,9.03
2018-04-23T02:56:31.516Z,9.77
2018-04-23T02:59:01.662Z,9.20
2018-04-23T03:01:31.197Z,9.33
2018-04-23T03:04:00.460Z,9.43
2018-04-23T03:06:29.768Z,8.87
2018-04-23T03:08:59.760Z,9.20
2018-04-23T03:11:29.002Z,9.50
2018-04-23T03:13:58.248Z,9.13
2018-04-23T03:16:27.658Z,9.43
2018-04-23T03:18:57.760Z,8.87
2018-04-23T03:21:27.934Z,9.40
2018-04-23T03:23:57.695Z,9.53
2018-04-23T03:26:26.894Z,9.90
2018-04-23T03:28:56.117Z,9.43
2018-04-23T03:31:26.238Z,9.70
2018-04-23T03:33:55.517Z,10.20
2018-04-23T03:36:24.780Z,10.10
2018-04-23T03:38:54.060Z,9.27
2018-04-23T03:41:23.228Z,10.13
2018-04-23T03:43:52.580Z,9.43
2018-04-23T03:46:21.815Z,9.27
2018-04-23T03:48:51.188Z,10.10
2018-04-23T03:51:20.603Z,10.20
2018-04-23T03:53:49.995Z,9.77
2018-04-23T03:56:19.004Z,10.00
2018-04-23T03:58:48.201Z,10.27
2018-04-23T04:01:18.299Z,10.13
2018-04-23T04:03:47.571Z,10.40
2018-04-23T04:06:16.949Z,10.17
2018-04-23T04:08:46.369Z,10.17
2018-04-23T04:11:16.519Z,11.47
2018-04-23T04:13:57.581Z,9.53
2018-04-23T04:16:38.726Z,10.70
2018-04-23T04:19:11.041Z,10.97
2018-04-23T04:21:40.516Z,11.03
2018-04-23T04:24:09.804Z,10.03
2018-04-23T04:26:39.147Z,10.20
2018-04-23T04:29:08.386Z,10.43
2018-04-23T04:31:39.232Z,10.53
2018-04-23T04:34:08.415Z,10.57
2018-04-23T04:36:37.757Z,9.10
2018-04-23T04:39:07.019Z,9.90
2018-04-23T04:41:36.578Z,9.83
2018-04-23T04:44:05.829Z,10.20
2018-04-23T04:46:35.024Z,10.00
2018-04-23T04:49:04.411Z,9.80
2018-04-23T04:51:33.927Z,9.67
2018-04-23T04:54:03.451Z,9.90
2018-04-23T04:56:32.847Z,10.17
2018-04-23T04:59:02.261Z,9.63
2018-04-23T05:01:31.469Z,9.70
2018-04-23T05:04:01.433Z,9.27
2018-04-23T05:06:34.132Z,9.63
2018-04-23T05:09:03.435Z,8.77
2018-04-23T05:11:32.946Z,9.10
2018-04-23T05:14:02.545Z,9.73
2018-04-23T05:16:31.841Z,8.37
2018-04-23T05:19:01.032Z,8.97
2018-04-23T05:21:30.347Z,9.37
2018-04-23T05:23:59.633Z,9.43
2018-04-23T05:26:28.995Z,9.53
2018-04-23T05:28:58.399Z,9.47
2018-04-23T05:31:27.611Z,9.17
2018-04-23T05:33:56.766Z,9.10
2018-04-23T05:36:26.343Z,8.63
2018-04-23T05:38:55.552Z,9.20
2018-04-23T05:41:24.727Z,8.97
2018-04-23T05:43:54.047Z,9.70
2018-04-23T05:46:23.340Z,12.03
2018-04-23T05:48:52.577Z,9.33
2018-04-23T05:51:21.788Z,8.93
2018-04-23T05:53:51.052Z,9.67
2018-04-23T05:56:20.317Z,9.67
2018-04-23T05:58:49.565Z,9.60
2018-04-23T06:01:18.757Z,10.07
2018-04-23T06:03:47.944Z,9.23
2018-04-23T06:06:17.175Z,8.63
2018-04-23T06:08:46.413Z,8.33
2018-04-23T06:11:15.600Z,8.40
2018-04-23T06:13:45.024Z,8.20
2018-04-23T06:16:14.308Z,8.07
2018-04-23T06:18:43.573Z,8.20
2018-04-23T06:21:12.843Z,7.83
2018-04-23T06:23:42.019Z,8.03
2018-04-23T06:26:11.429Z,7.60
2018-04-23T06:28:40.722Z,8.03
2018-04-23T06:31:10.029Z,8.00
2018-04-23T06:33:39.271Z,7.50
2018-04-23T06:36:08.637Z,8.10
2018-04-23T06:38:37.934Z,6.83
2018-04-23T06:41:07.072Z,7.10
2018-04-23T06:43:36.427Z,7.50
2018-04-23T06:46:05.873Z,7.10
2018-04-23T06:48:35.010Z,6.47
2018-04-23T06:51:04.322Z,6.37
2018-04-23T06:53:33.505Z,7.00
2018-04-23T06:56:02.818Z,6.47
2018-04-23T06:58:32.534Z,5.63
2018-04-23T07:01:01.756Z,6.73
2018-04-23T07:03:30.978Z,6.17
2018-04-23T07:06:01.042Z,5.47
2018-04-23T07:08:30.351Z,5.60
2018-04-23T07:10:59.546Z,5.33
2018-04-23T07:13:28.804Z,5.07
2018-04-23T07:15:58.791Z,4.67
2018-04-23T07:18:28.114Z,5.93
2018-04-23T07:20:58.175Z,5.30
2018-04-23T07:23:27.329Z,5.60
2018-04-23T07:25:57.302Z,5.00
2018-04-23T07:28:26.714Z,5.23
2018-04-23T07:30:56.093Z,5.20
2018-04-23T07:33:25.249Z,5.33
2018-04-23T07:35:55.205Z,5.27
2018-04-23T07:38:24.391Z,5.03
2018-04-23T07:40:53.705Z,4.57
2018-04-23T07:43:22.908Z,5.27
2018-04-23T07:45:52.074Z,4.83
2018-04-23T07:48:22.070Z,4.60
2018-04-23T07:50:51.485Z,4.60
2018-04-23T07:53:21.752Z,4.10
2018-04-23T07:55:52.137Z,3.97
2018-04-23T07:58:21.413Z,4.43
2018-04-23T08:00:51.492Z,4.43
2018-04-23T08:03:22.734Z,3.77
2018-04-23T08:05:51.953Z,3.90
2018-04-23T08:08:21.434Z,4.40
2018-04-23T08:10:50.622Z,4.30
2018-04-23T08:13:19.834Z,3.93
2018-04-23T08:15:49.046Z,4.43
2018-04-23T08:18:21.112Z,4.10
2018-04-23T08:20:50.347Z,4.27
2018-04-23T08:23:20.409Z,4.10
2018-04-23T08:25:49.625Z,4.33
2018-04-23T08:28:18.895Z,4.33
2018-04-23T08:30:48.412Z,4.07
2018-04-23T08:33:21.424Z,3.93
2018-04-23T08:35:50.888Z,3.87
2018-04-23T08:38:20.172Z,4.17
2018-04-23T08:40:49.378Z,4.53
2018-04-23T08:43:18.704Z,4.30
2018-04-23T08:45:48.068Z,4.70
2018-04-23T08:48:21.210Z,4.63
2018-04-23T08:50:50.467Z,4.20
2018-04-23T08:53:19.855Z,4.20
2018-04-23T08:55:49.687Z,4.27
2018-04-23T08:58:18.867Z,4.27
2018-04-23T09:00:48.775Z,4.13
2018-04-23T09:03:32.871Z,4.65
2018-04-23T09:06:02.024Z,4.60
2018-04-23T09:08:31.261Z,4.57
2018-04-23T09:11:00.788Z,4.40
2018-04-23T09:13:32.470Z,4.67
2018-04-23T09:16:02.077Z,4.23
2018-04-23T09:18:32.069Z,4.67
2018-04-23T09:21:01.513Z,5.07
2018-04-23T09:23:32.620Z,5.73
2018-04-23T09:26:02.712Z,5.20
2018-04-23T09:28:33.269Z,5.40
2018-04-23T09:31:02.649Z,5.40
2018-04-23T09:33:32.961Z,4.90
2018-04-23T09:36:02.208Z,5.33
2018-04-23T09:38:32.338Z,5.00
2018-04-23T09:41:02.305Z,5.40
2018-04-23T09:43:31.498Z,5.27
2018-04-23T09:46:00.836Z,5.10
2018-04-23T09:48:29.988Z,5.67
2018-04-23T09:50:59.708Z,5.80
2018-04-23T09:53:28.957Z,5.10
2018-04-23T09:55:58.149Z,4.63
2018-04-23T09:58:27.570Z,4.67
2018-04-23T10:00:57.587Z,4.80
2018-04-23T10:03:42.475Z,4.30
2018-04-23T10:06:11.691Z,4.30
2018-04-23T10:08:40.834Z,3.43
2018-04-23T10:11:10.773Z,3.83
2018-04-23T10:13:39.977Z,4.07
2018-04-23T10:16:09.349Z,4.27
2018-04-23T10:18:38.554Z,4.03
2018-04-23T10:21:08.689Z,3.77
2018-04-23T10:23:38.120Z,4.03
2018-04-23T10:26:07.304Z,4.90
2018-04-23T10:28:36.834Z,4.40
2018-04-23T10:31:05.993Z,4.30
2018-04-23T10:33:35.268Z,4.90
2018-04-23T10:36:05.244Z,5.03
2018-04-23T10:38:34.540Z,4.07
2018-04-23T10:41:03.942Z,4.30
2018-04-23T10:43:33.083Z,4.40
2018-04-23T10:46:02.273Z,4.50
2018-04-23T10:48:31.485Z,4.63
2018-04-23T10:51:01.587Z,4.60
2018-04-23T10:53:30.771Z,4.70
2018-04-23T10:56:00.126Z,4.73
2018-04-23T10:58:29.374Z,4.40
2018-04-23T11:00:58.561Z,4.80
2018-04-23T11:03:27.948Z,4.23
2018-04-23T11:05:57.151Z,4.03
2018-04-23T11:08:26.549Z,4.23
2018-04-23T11:10:55.714Z,3.63
2018-04-23T11:13:25.618Z,4.20
2018-04-23T11:15:55.565Z,4.50
2018-04-23T11:18:24.976Z,4.00
2018-04-23T11:20:54.188Z,3.30
2018-04-23T11:23:23.391Z,3.90
2018-04-23T11:25:52.593Z,4.07
2018-04-23T11:28:21.785Z,4.10
2018-04-23T11:30:50.978Z,3.53
2018-04-23T11:33:20.981Z,3.60
2018-04-23T11:35:50.286Z,3.47
2018-04-23T11:38:19.277Z,3.77
2018-04-23T11:40:48.525Z,3.63
2018-04-23T11:43:18.634Z,3.60
2018-04-23T11:45:47.916Z,3.40
2018-04-23T11:48:17.400Z,3.30
2018-04-23T11:50:46.704Z,4.37
2018-04-23T11:53:15.923Z,3.80
2018-04-23T11:55:45.195Z,3.70
2018-04-23T11:58:14.468Z,3.50
2018-04-23T12:00:44.514Z,3.33
2018-04-23T12:03:13.815Z,3.37
2018-04-23T12:05:43.019Z,3.60
2018-04-23T12:08:12.317Z,4.70
2018-04-23T12:10:41.632Z,3.73
2018-04-23T12:13:10.848Z,3.90
2018-04-23T12:15:40.132Z,4.20
2018-04-23T12:18:10.145Z,3.73
2018-04-23T12:20:39.530Z,4.03
2018-04-23T12:23:08.737Z,3.63
2018-04-23T12:25:38.101Z,3.53
2018-04-23T12:28:07.355Z,3.30
2018-04-23T12:30:36.506Z,3.50
2018-04-23T12:33:05.715Z,3.50
2018-04-23T12:35:34.951Z,4.00
2018-04-23T12:38:04.265Z,3.43
2018-04-23T12:40:34.260Z,3.80
2018-04-23T12:43:03.582Z,4.00
2018-04-23T12:45:33.660Z,3.73
2018-04-23T12:48:02.843Z,4.10
2018-04-23T12:50:32.049Z,3.97
2018-04-23T12:53:01.512Z,3.60
2018-04-23T12:55:31.526Z,3.67
2018-04-23T12:58:01.485Z,3.33
2018-04-23T13:00:30.793Z,4.10
2018-04-23T13:03:00.090Z,3.93
2018-04-23T13:05:29.473Z,3.83
2018-04-23T13:07:58.772Z,3.70
2018-04-23T13:10:28.062Z,4.23
2018-04-23T13:12:57.497Z,4.17
2018-04-23T13:15:26.795Z,3.83
2018-04-23T13:17:56.403Z,3.73
2018-04-23T13:20:25.788Z,3.60
2018-04-23T13:22:55.324Z,4.10
2018-04-23T13:25:24.612Z,4.13
2018-04-23T13:27:53.757Z,3.97
2018-04-23T13:30:23.213Z,3.30
2018-04-23T13:32:52.519Z,3.87
2018-04-23T13:35:21.745Z,3.50
2018-04-23T13:37:51.011Z,3.27
2018-04-23T13:40:20.179Z,3.67
2018-04-23T13:42:49.512Z,3.53
2018-04-23T13:45:18.813Z,3.83
2018-04-23T13:47:48.102Z,2.93
2018-04-23T13:50:17.261Z,3.87
2018-04-23T13:52:47.202Z,3.83
2018-04-23T13:55:16.441Z,4.13
2018-04-23T13:57:45.672Z,3.50
2018-04-23T14:00:15.684Z,3.80
2018-04-23T14:02:45.752Z,4.00
2018-04-23T14:05:14.964Z,4.00
2018-04-23T14:07:44.259Z,3.80
2018-04-23T14:10:13.288Z,4.27
2018-04-23T14:12:43.335Z,4.40
2018-04-23T14:15:12.515Z,4.17
2018-04-23T14:17:41.765Z,4.10
2018-04-23T14:20:11.261Z,3.60
2018-04-23T14:22:40.459Z,4.10
2018-04-23T14:25:09.685Z,4.00
2018-04-23T14:27:38.967Z,4.03
2018-04-23T14:30:08.262Z,4.00
2018-04-23T14:32:37.464Z,3.43
2018-04-23T14:35:06.758Z,4.07
2018-04-23T14:37:35.934Z,3.90
2018-04-23T14:40:05.104Z,4.23
2018-04-23T14:42:34.251Z,3.97
2018-04-23T14:45:03.436Z,3.60
2018-04-23T14:47:32.752Z,3.90
2018-04-23T14:50:02.052Z,4.00
2018-04-23T14:52:31.245Z,3.80
2018-04-23T14:55:00.464Z,4.13
2018-04-23T14:57:29.840Z,3.90
2018-04-23T14:59:59.105Z,3.67
2018-04-23T15:02:29.161Z,3.53
2018-04-23T15:04:58.464Z,4.90
2018-04-23T15:07:27.676Z,4.10
2018-04-23T15:09:56.869Z,4.13
2018-04-23T15:12:26.048Z,3.83
2018-04-23T15:14:55.263Z,4.47
2018-04-23T15:17:24.654Z,4.00
2018-04-23T15:19:53.962Z,4.23
2018-04-23T15:22:23.135Z,4.77
2018-04-23T15:24:52.361Z,3.70
2018-04-23T15:27:21.633Z,3.87
2018-04-23T15:29:50.889Z,4.70
2018-04-23T15:32:20.189Z,4.27
2018-04-23T15:34:49.501Z,3.90
2018-04-23T15:37:19.666Z,4.13
2018-04-23T15:39:48.875Z,3.97
2018-04-23T15:42:18.055Z,3.90
2018-04-23T15:44:47.313Z,4.20
2018-04-23T15:47:17.434Z,4.23
2018-04-23T15:49:46.564Z,4.20
2018-04-23T15:52:15.953Z,3.90
2018-04-23T15:54:45.121Z,3.90
2018-04-23T15:57:14.429Z,4.30
2018-04-23T15:59:44.410Z,4.17
2018-04-23T16:02:13.654Z,4.40
2018-04-23T16:04:42.996Z,4.43
2018-04-23T16:07:12.203Z,4.60
2018-04-23T16:09:41.599Z,3.73
2018-04-23T16:12:10.819Z,4.07
2018-04-23T16:14:39.986Z,4.77
2018-04-23T16:17:09.199Z,4.43
2018-04-23T16:19:38.569Z,4.70
2018-04-23T16:22:08.107Z,4.53
2018-04-23T16:24:37.317Z,4.77
2018-04-23T16:27:06.494Z,5.03
2018-04-23T16:29:35.824Z,5.30
2018-04-23T16:32:05.528Z,4.93
2018-04-23T16:34:34.734Z,5.50
2018-04-23T16:37:03.923Z,5.80
2018-04-23T16:39:33.135Z,5.63
2018-04-23T16:42:03.066Z,5.67
2018-04-23T16:44:32.997Z,5.63
2018-04-23T16:47:03.105Z,5.27
2018-04-23T16:49:33.045Z,5.43
2018-04-23T16:52:05.221Z,5.63
2018-04-23T16:54:34.473Z,5.20
2018-04-23T16:57:04.477Z,5.80
2018-04-23T16:59:33.845Z,6.27
2018-04-23T17:02:03.058Z,5.87
2018-04-23T17:04:32.289Z,6.40
2018-04-23T17:07:01.488Z,6.80
2018-04-23T17:09:31.457Z,6.77
2018-04-23T17:12:00.705Z,6.40
2018-04-23T17:14:34.271Z,6.90
2018-04-23T17:17:03.456Z,5.97
2018-04-23T17:19:32.700Z,6.00
2018-04-23T17:22:01.863Z,6.10
2018-04-23T17:24:31.258Z,6.37
2018-04-23T17:27:00.587Z,6.77
2018-04-23T17:29:30.583Z,6.30
2018-04-23T17:31:59.763Z,7.03
2018-04-23T17:34:29.080Z,6.53
2018-04-23T17:36:58.300Z,7.13
2018-04-23T17:39:27.496Z,6.93
2018-04-23T17:41:56.694Z,7.50
2018-04-23T17:44:25.995Z,6.60
2018-04-23T17:46:55.309Z,6.57
2018-04-23T17:49:24.548Z,5.63
2018-04-23T17:51:53.642Z,6.63
2018-04-23T17:54:22.884Z,6.37
2018-04-23T17:56:52.256Z,7.00
2018-04-23T17:59:21.422Z,5.63
2018-04-23T18:01:50.647Z,6.80
2018-04-23T18:04:19.957Z,6.30
2018-04-23T18:06:49.170Z,6.97
2018-04-23T18:09:18.382Z,6.43
2018-04-23T18:11:48.410Z,6.60
2018-04-23T18:14:17.766Z,7.10
2018-04-23T18:16:47.020Z,6.93
2018-04-23T18:19:16.949Z,6.83
2018-04-23T18:21:46.890Z,6.20
2018-04-23T18:24:16.095Z,7.20
2018-04-23T18:26:45.227Z,6.40
2018-04-23T18:29:14.704Z,7.10
2018-04-23T18:31:44.097Z,7.57
2018-04-23T18:34:13.402Z,6.80
2018-04-23T18:36:45.640Z,7.30
2018-04-23T18:39:15.847Z,6.13
2018-04-23T18:41:45.024Z,6.60
2018-04-23T18:44:14.284Z,6.20
2018-04-23T18:46:43.627Z,6.43
2018-04-23T18:49:12.616Z,6.40
2018-04-23T18:51:41.829Z,5.53
2018-04-23T18:54:11.183Z,5.40
2018-04-23T18:56:40.377Z,5.37
2018-04-23T18:59:09.624Z,5.43
2018-04-23T19:01:38.621Z,4.97
2018-04-23T19:04:07.772Z,4.67
2018-04-23T19:06:36.747Z,4.33
2018-04-23T19:09:05.716Z,3.30
2018-04-23T19:11:35.591Z,3.47
2018-04-23T19:14:04.970Z,3.17
2018-04-23T19:16:35.116Z,3.13
2018-04-23T19:19:04.486Z,3.10
2018-04-23T19:21:33.666Z,3.13
2018-04-23T19:24:03.596Z,3.13
2018-04-23T19:26:32.775Z,3.30
2018-04-23T19:29:03.340Z,3.13
2018-04-23T19:31:32.518Z,3.13
2018-04-23T19:34:01.841Z,3.10
2018-04-23T19:36:32.307Z,3.43
2018-04-23T19:39:01.655Z,3.10
2018-04-23T19:41:31.258Z,3.07
2018-04-23T19:44:02.099Z,2.90
2018-04-23T19:46:31.370Z,2.87
2018-04-23T19:49:01.326Z,3.00
2018-04-23T19:51:30.504Z,2.77
2018-04-23T19:53:59.813Z,2.93
2018-04-23T19:56:29.052Z,3.10
2018-04-23T19:58:58.321Z,3.50
2018-04-23T20:01:27.564Z,3.40
2018-04-23T20:03:56.744Z,2.83
2018-04-23T20:06:26.004Z,3.07
2018-04-23T20:08:55.159Z,3.00
2018-04-23T20:11:25.318Z,2.53
2018-04-23T20:13:54.706Z,2.73
2018-04-23T20:16:23.942Z,2.97
2018-04-23T20:18:53.068Z,2.50
2018-04-23T20:21:22.298Z,2.50
2018-04-23T20:23:51.488Z,2.40
2018-04-23T20:26:20.813Z,2.20
2018-04-23T20:28:49.993Z,2.30
2018-04-23T20:31:19.195Z,2.57
2018-04-23T20:33:48.440Z,2.50
2018-04-23T20:36:17.706Z,2.70
2018-04-23T20:38:46.887Z,2.33
2018-04-23T20:41:16.219Z,2.40
2018-04-23T20:43:45.550Z,2.30
2018-04-23T20:46:14.799Z,2.33
2018-04-23T20:48:47.875Z,2.80
2018-04-23T20:51:17.036Z,2.43
2018-04-23T20:53:46.314Z,2.33
2018-04-23T20:56:16.764Z,2.50
2018-04-23T20:58:46.754Z,2.80
2018-04-23T21:01:16.064Z,3.13
2018-04-23T21:03:46.377Z,2.40
2018-04-23T21:06:15.551Z,2.87
2018-04-23T21:08:44.715Z,2.93
2018-04-23T21:11:17.696Z,2.90
2018-04-23T21:13:46.942Z,2.87
2018-04-23T21:16:16.135Z,3.57
2018-04-23T21:18:45.267Z,3.00
2018-04-23T21:21:14.673Z,3.40
2018-04-23T21:23:43.940Z,3.83
2018-04-23T21:26:13.092Z,4.43
2018-04-23T21:28:43.123Z,4.30
2018-04-23T21:31:13.063Z,4.30
2018-04-23T21:33:42.253Z,5.00
2018-04-23T21:36:11.562Z,5.13
2018-04-23T21:38:40.766Z,5.40
2018-04-23T21:41:09.981Z,6.00
2018-04-23T21:43:39.267Z,6.67
2018-04-23T21:46:08.379Z,7.17
2018-04-23T21:48:37.722Z,7.07
2018-04-23T21:51:07.692Z,7.87
2018-04-23T21:53:36.867Z,8.07
2018-04-23T21:56:06.047Z,8.00
2018-04-23T21:58:35.474Z,7.83
2018-04-23T22:01:04.878Z,8.40
2018-04-23T22:03:34.096Z,8.40
2018-04-23T22:06:03.379Z,8.67
2018-04-23T22:08:32.570Z,8.23
2018-04-23T22:11:01.805Z,9.30
2018-04-23T22:13:31.151Z,10.40
2018-04-23T22:16:00.473Z,9.37
2018-04-23T22:18:29.771Z,10.43
2018-04-23T22:20:58.898Z,10.57
2018-04-23T22:23:28.156Z,10.60
2018-04-23T22:25:57.429Z,10.87
2018-04-23T22:28:27.373Z,11.00
2018-04-23T22:30:56.678Z,10.87
2018-04-23T22:33:25.852Z,10.90
2018-04-23T22:35:54.996Z,10.63
2018-04-23T22:38:24.374Z,12.00
2018-04-23T22:40:53.665Z,12.17
2018-04-23T22:43:23.372Z,13.67
2018-04-23T22:45:52.536Z,12.63
2018-04-23T22:48:21.749Z,9.87
2018-04-23T22:50:51.712Z,13.30
2018-04-23T22:53:20.999Z,13.70
2018-04-23T22:55:50.256Z,13.17
2018-04-23T22:58:20.312Z,14.17
2018-04-23T23:00:49.615Z,13.97
2018-04-23T23:03:20.754Z,15.47
2018-04-23T23:05:50.023Z,15.20
2018-04-23T23:08:19.315Z,14.03
2018-04-23T23:10:48.490Z,15.70
2018-04-23T23:13:17.761Z,15.63
2018-04-23T23:15:46.988Z,14.93
2018-04-23T23:18:16.193Z,15.10
2018-04-23T23:20:45.386Z,16.40
2018-04-23T23:23:14.565Z,15.27
2018-04-23T23:25:44.009Z,17.33
2018-04-23T23:28:16.726Z,15.47
2018-04-23T23:30:45.944Z,15.67
2018-04-23T23:33:15.174Z,16.97
2018-04-23T23:35:44.410Z,18.50
2018-04-23T23:38:13.621Z,17.10
2018-04-23T23:40:42.788Z,16.70
2018-04-23T23:43:12.035Z,17.33
2018-04-23T23:45:41.245Z,18.50
2018-04-23T23:48:11.273Z,17.53
2018-04-23T23:50:41.310Z,17.50
2018-04-23T23:53:12.555Z,17.63
2018-04-23T23:55:42.480Z,18.53
2018-04-23T23:58:11.810Z,18.60
